Time;durP1;ratioP1;P1;durP2;ratioP2;P2;SDS_P1;SDS_P2;PMS_P1;PMS_P2;Temp;Humidity;BMP_temperature;BMP_pressure;BME280_temperature;BME280_humidity;BME280_pressure;Samples;Min_cycle;Max_cycle;Signal;HPM_P1;HPM_P2
2023/10/18 00:00:46;;;;;;;8.15;4.72;;;;;;;4.95;100.00;100277.59;5081489;28;20041;-81
2023/10/18 00:03:14;;;;;;;7.75;4.88;;;;;;;4.83;100.00;100252.53;5074453;28;20037;-79
2023/10/18 00:05:44;;;;;;;8.52;4.95;;;;;;;4.91;100.00;100270.69;5057688;28;20033;-82
2023/10/18 00:08:13;;;;;;;7.85;5.10;;;;;;;5.02;100.00;100289.66;5066761;28;20033;-80
2023/10/18 00:10:41;;;;;;;8.77;5.65;;;;;;;4.97;100.00;100290.66;5105205;28;20040;-82
2023/10/18 00:13:11;;;;;;;9.82;5.68;;;;;;;4.74;100.00;100259.75;5082902;28;20044;-80
2023/10/18 00:15:40;;;;;;;8.63;5.15;;;;;;;4.88;100.00;100292.59;5064071;28;20046;-81
2023/10/18 00:18:11;;;;;;;8.27;5.25;;;;;;;4.89;100.00;100302.22;5052373;28;20086;-81
2023/10/18 00:20:39;;;;;;;13.38;5.47;;;;;;;4.90;100.00;100300.44;5071228;28;20035;-81
2023/10/18 00:23:08;;;;;;;10.10;6.15;;;;;;;4.76;100.00;100276.31;5081696;28;20048;-80
2023/10/18 00:25:37;;;;;;;10.05;5.82;;;;;;;4.76;100.00;100277.19;5093387;28;20067;-81
2023/10/18 00:28:08;;;;;;;9.25;5.30;;;;;;;4.77;100.00;100272.81;5092014;28;20031;-81
2023/10/18 00:30:39;;;;;;;8.75;5.53;;;;;;;4.74;100.00;100270.25;5097120;28;20046;-82
2023/10/18 00:33:07;;;;;;;8.45;5.25;;;;;;;4.72;100.00;100282.56;5098823;28;20039;-81
2023/10/18 00:35:36;;;;;;;9.07;5.38;;;;;;;4.64;100.00;100271.38;5092423;28;20139;-80
2023/10/18 00:38:08;;;;;;;8.88;5.85;;;;;;;4.56;100.00;100269.81;5088955;28;20064;-82
2023/10/18 00:40:40;;;;;;;9.32;5.45;;;;;;;4.68;100.00;100278.28;5103739;28;20052;-79
2023/10/18 00:43:19;;;;;;;8.85;5.78;;;;;;;4.65;100.00;100275.75;5099784;28;20047;-81
2023/10/18 00:45:50;;;;;;;8.40;5.45;;;;;;;4.67;100.00;100277.44;5094472;28;20543;-81
2023/10/18 00:48:25;;;;;;;6.75;5.05;;;;;;;4.56;100.00;100251.44;5095849;28;20024;-80
2023/10/18 00:50:59;;;;;;;7.95;5.40;;;;;;;4.64;100.00;100261.75;5096308;28;20052;-82
2023/10/18 00:53:33;;;;;;;9.02;5.97;;;;;;;4.68;100.00;100270.41;5085076;28;20037;-82
2023/10/18 00:56:04;;;;;;;9.57;5.30;;;;;;;4.68;100.00;100266.03;5082187;28;20077;-82
2023/10/18 00:58:35;;;;;;;8.18;5.60;;;;;;;4.64;100.00;100263.53;5075649;28;20051;-82
2023/10/18 01:01:09;;;;;;;7.65;5.15;;;;;;;4.44;100.00;100233.41;5089106;28;20044;-82
2023/10/18 01:03:39;;;;;;;9.25;5.65;;;;;;;4.61;100.00;100263.59;5084284;28;20139;-82
2023/10/18 01:06:16;;;;;;;8.60;5.70;;;;;;;4.55;100.00;100247.13;5075380;28;20051;-83
2023/10/18 01:08:48;;;;;;;13.95;5.30;;;;;;;4.57;100.00;100250.53;5082429;28;20050;-81
2023/10/18 01:11:22;;;;;;;9.20;5.65;;;;;;;4.58;100.00;100257.53;5104629;28;20108;-81
2023/10/18 01:13:55;;;;;;;10.40;5.82;;;;;;;4.46;100.00;100226.38;5094144;28;20033;-80
2023/10/18 01:16:29;;;;;;;7.60;5.38;;;;;;;4.51;100.00;100245.47;5087993;28;20116;-78
2023/10/18 01:19:04;;;;;;;7.57;5.25;;;;;;;4.47;100.00;100235.94;5107916;28;20032;-81
2023/10/18 01:21:33;;;;;;;8.35;5.35;;;;;;;4.52;100.00;100238.47;5088506;28;20103;-79
2023/10/18 01:24:04;;;;;;;9.10;5.40;;;;;;;4.35;100.00;100214.44;5082592;28;20408;-81
2023/10/18 01:26:36;;;;;;;7.78;5.57;;;;;;;4.25;100.00;100208.53;5080317;28;20041;-80
2023/10/18 01:29:08;;;;;;;7.40;5.53;;;;;;;4.34;100.00;100221.44;5113974;28;20055;-78
2023/10/18 01:31:37;;;;;;;8.57;5.38;;;;;;;4.25;100.00;100205.91;5098649;28;20032;-81
2023/10/18 01:34:06;;;;;;;7.63;5.63;;;;;;;4.44;100.00;100238.66;5088483;28;20127;-81
2023/10/18 01:36:39;;;;;;;8.57;5.53;;;;;;;4.27;100.00;100206.72;5084899;28;20858;-81
2023/10/18 01:39:18;;;;;;;11.13;5.97;;;;;;;4.20;100.00;100194.69;5087644;28;20116;-81
2023/10/18 01:42:16;;;;;;;10.45;6.00;;;;;;;4.34;100.00;100218.81;5109473;28;20036;-81
2023/10/18 01:44:48;;;;;;;9.38;6.05;;;;;;;4.37;100.00;100218.75;5099740;28;20130;-80
2023/10/18 01:47:20;;;;;;;9.40;6.10;;;;;;;4.29;100.00;100204.06;5087818;28;20036;-81
2023/10/18 01:49:53;;;;;;;8.85;6.25;;;;;;;4.33;100.00;100214.47;5093506;28;20090;-80
2023/10/18 01:52:22;;;;;;;9.48;6.05;;;;;;;4.31;100.00;100204.91;5097412;28;20028;-79
2023/10/18 01:54:54;;;;;;;8.48;5.82;;;;;;;4.25;100.00;100203.28;5108465;28;20054;-79
2023/10/18 01:57:25;;;;;;;8.13;5.65;;;;;;;4.21;100.00;100196.41;5082086;28;20064;-81
2023/10/18 01:59:55;;;;;;;8.05;5.97;;;;;;;4.29;100.00;100209.31;5089650;28;20052;-81
2023/10/18 02:02:25;;;;;;;8.50;5.50;;;;;;;4.05;100.00;100174.97;5079285;28;20381;-81
2023/10/18 02:04:54;;;;;;;8.30;5.47;;;;;;;4.19;100.00;100195.59;5078036;28;20059;-80
2023/10/18 02:07:24;;;;;;;8.38;4.68;;;;;;;4.08;100.00;100176.66;5087042;28;20063;-81
2023/10/18 02:09:57;;;;;;;8.02;6.10;;;;;;;4.14;100.00;100187.81;5090177;28;20052;-81
2023/10/18 02:12:29;;;;;;;7.95;6.15;;;;;;;4.15;100.00;100199.19;5072185;28;20044;-81
2023/10/18 02:15:00;;;;;;;9.00;5.60;;;;;;;4.01;100.00;100182.91;5091884;28;20040;-80
2023/10/18 02:17:51;;;;;;;9.23;6.10;;;;;;;3.94;100.00;100176.94;5118125;28;20030;-78
2023/10/18 02:20:26;;;;;;;9.90;6.45;;;;;;;4.00;100.00;100192.53;5096290;28;20082;-81
2023/10/18 02:22:59;;;;;;;8.95;6.00;;;;;;;3.95;100.00;100183.91;5098576;28;20036;-79
2023/10/18 02:25:43;;;;;;;9.98;6.25;;;;;;;4.03;100.00;100192.47;5098310;28;20036;-81
2023/10/18 02:28:23;;;;;;;8.40;6.28;;;;;;;3.90;100.00;100172.72;5099091;28;20043;-79
2023/10/18 02:30:56;;;;;;;11.63;6.47;;;;;;;3.99;100.00;100188.19;5100048;28;20032;-80
2023/10/18 02:33:36;;;;;;;7.70;5.95;;;;;;;3.95;100.00;100180.44;5087270;28;20040;-81
2023/10/18 02:36:10;;;;;;;9.90;5.68;;;;;;;3.93;100.00;100177.00;5087229;28;20443;-80
2023/10/18 02:38:40;;;;;;;10.25;6.20;;;;;;;3.89;100.00;100173.59;5095173;28;20047;-83
2023/10/18 02:41:20;;;;;;;8.25;6.13;;;;;;;3.87;100.00;100167.53;5086534;28;20044;-82
2023/10/18 02:43:52;;;;;;;10.75;5.97;;;;;;;3.63;100.00;100124.41;5094333;28;20062;-80
2023/10/18 02:46:25;;;;;;;8.60;6.10;;;;;;;3.90;100.00;100163.97;5085960;28;20070;-80
2023/10/18 02:48:54;;;;;;;8.15;5.78;;;;;;;3.80;100.00;100142.38;5089140;28;20248;-83
2023/10/18 02:51:24;;;;;;;8.23;5.50;;;;;;;3.79;100.00;100146.75;5089908;28;20040;-81
2023/10/18 02:54:03;;;;;;;8.10;6.10;;;;;;;3.87;100.00;100160.53;5094152;28;20792;-80
2023/10/18 02:56:37;;;;;;;10.77;6.78;;;;;;;3.79;100.00;100145.88;5095199;28;20048;-80
2023/10/18 02:59:08;;;;;;;8.95;6.30;;;;;;;3.86;100.00;100150.94;5080550;28;20041;-79
2023/10/18 03:01:40;;;;;;;10.20;5.63;;;;;;;3.86;100.00;100148.34;5092963;28;20527;-81
2023/10/18 03:04:14;;;;;;;9.63;5.97;;;;;;;3.92;100.00;100146.47;5086327;28;20060;-79
2023/10/18 03:06:46;;;;;;;9.68;6.03;;;;;;;3.85;100.00;100138.75;5099250;28;20036;-81
2023/10/18 03:09:38;;;;;;;8.93;5.88;;;;;;;3.87;100.00;100131.72;5104412;28;20040;-81
2023/10/18 03:12:14;;;;;;;8.95;6.13;;;;;;;3.77;100.00;100129.38;5090931;28;20048;-82
2023/10/18 03:14:54;;;;;;;9.07;6.10;;;;;;;3.75;100.00;100123.31;5071558;28;20072;-81
2023/10/18 03:17:24;;;;;;;8.75;5.75;;;;;;;3.83;100.00;100132.69;5086245;28;20035;-82
2023/10/18 03:20:02;;;;;;;9.27;6.55;;;;;;;3.83;100.00;100140.53;5073814;28;20040;-83
2023/10/18 03:22:32;;;;;;;9.10;6.07;;;;;;;3.75;100.00;100132.03;5067258;28;20046;-82
2023/10/18 03:25:02;;;;;;;9.38;6.05;;;;;;;3.78;100.00;100138.91;5091692;28;20055;-81
2023/10/18 03:27:33;;;;;;;9.25;5.97;;;;;;;3.74;100.00;100145.16;5087435;28;20589;-82
2023/10/18 03:30:17;;;;;;;10.23;5.95;;;;;;;3.68;100.00;100127.81;5095304;28;20108;-81
2023/10/18 03:32:50;;;;;;;9.63;5.88;;;;;;;3.72;100.00;100132.09;5070104;28;20051;-81
2023/10/18 03:35:20;;;;;;;8.50;5.65;;;;;;;3.78;100.00;100144.16;5075680;28;20059;-82
2023/10/18 03:37:53;;;;;;;8.50;5.72;;;;;;;3.68;100.00;100125.19;5087076;28;20517;-81
2023/10/18 03:40:24;;;;;;;9.35;5.72;;;;;;;3.77;100.00;100134.59;5085236;28;20024;-82
2023/10/18 03:42:54;;;;;;;12.15;6.53;;;;;;;3.66;100.00;100121.75;5089778;28;20127;-83
2023/10/18 03:45:58;;;;;;;9.17;6.33;;;;;;;3.74;100.00;100135.53;5087702;28;20131;-82
2023/10/18 03:48:24;;;;;;;9.88;6.05;;;;;;;3.68;100.00;100130.44;5085119;28;20082;-81
2023/10/18 03:50:54;;;;;;;13.73;7.47;;;;;;;3.46;100.00;100093.38;5085710;28;20435;-83
2023/10/18 03:53:27;;;;;;;9.07;6.95;;;;;;;3.38;100.00;100079.63;5065446;28;20067;-81
2023/10/18 03:56:04;;;;;;;9.70;6.40;;;;;;;3.54;100.00;100106.31;5104691;28;20055;-81
2023/10/18 03:58:35;;;;;;;7.72;5.82;;;;;;;3.63;100.00;100128.78;5055077;28;20036;-83
2023/10/18 04:01:12;;;;;;;10.65;6.35;;;;;;;3.49;100.00;100109.03;5105571;28;20044;-82
2023/10/18 04:03:45;;;;;;;9.73;6.43;;;;;;;3.58;100.00;100113.22;5087737;28;20071;-82
2023/10/18 04:06:23;;;;;;;8.18;6.18;;;;;;;3.50;100.00;100110.75;5079802;28;20044;-79
2023/10/18 04:08:51;;;;;;;9.35;6.78;;;;;;;3.57;100.00;100137.66;5077051;28;20083;-81
2023/10/18 04:11:26;;;;;;;8.02;5.93;;;;;;;3.51;100.00;100122.94;5059426;28;20041;-83
2023/10/18 04:13:56;;;;;;;10.95;6.35;;;;;;;3.55;100.00;100121.13;5063341;28;20052;-80
2023/10/18 04:16:30;;;;;;;10.45;6.85;;;;;;;3.58;100.00;100128.06;5062582;28;20069;-83
2023/10/18 04:19:00;;;;;;;9.60;6.68;;;;;;;3.54;100.00;100111.56;5062182;28;20053;-82
2023/10/18 04:21:29;;;;;;;9.55;6.97;;;;;;;3.63;100.00;100107.84;5071343;28;20041;-79
2023/10/18 04:24:09;;;;;;;10.25;6.45;;;;;;;3.50;100.00;100089.81;5076007;28;20029;-79
2023/10/18 04:26:40;;;;;;;10.25;6.75;;;;;;;3.50;100.00;100094.19;5070933;28;20108;-78
2023/10/18 04:29:18;;;;;;;9.50;6.65;;;;;;;3.44;100.00;100083.88;5070785;28;20048;-80
2023/10/18 04:31:49;;;;;;;10.43;6.28;;;;;;;3.43;100.00;100074.31;5057426;28;20045;-80
2023/10/18 04:34:20;;;;;;;8.70;6.50;;;;;;;3.49;100.00;100076.75;5068646;28;20041;-80
2023/10/18 04:36:51;;;;;;;10.13;6.57;;;;;;;3.34;100.00;100066.66;5062253;28;20040;-80
2023/10/18 04:39:20;;;;;;;12.75;6.90;;;;;;;3.55;100.00;100091.47;5062988;28;20045;-81
2023/10/18 04:41:49;;;;;;;8.80;6.30;;;;;;;3.46;100.00;100075.06;5064894;28;20139;-82
2023/10/18 04:44:20;;;;;;;8.65;5.88;;;;;;;3.51;100.00;100067.13;5057900;28;20051;-83
2023/10/18 04:46:53;;;;;;;9.98;6.55;;;;;;;3.57;100.00;100073.97;5039391;28;20041;-82
2023/10/18 04:49:36;;;;;;;8.98;6.20;;;;;;;3.50;100.00;100062.78;5064032;28;20073;-82
2023/10/18 04:52:08;;;;;;;10.45;6.70;;;;;;;3.53;100.00;100062.72;5067162;28;20041;-80
2023/10/18 04:54:37;;;;;;;9.75;6.47;;;;;;;3.35;100.00;100031.72;5069016;28;20051;-79
2023/10/18 04:57:09;;;;;;;10.10;6.32;;;;;;;3.44;100.00;100026.28;5066545;28;20132;-80
2023/10/18 04:59:45;;;;;;;9.85;6.50;;;;;;;3.45;100.00;100028.88;5066956;28;20067;-79
2023/10/18 05:02:18;;;;;;;11.27;6.43;;;;;;;3.32;100.00;100008.25;5063100;28;20040;-81
2023/10/18 05:04:46;;;;;;;11.60;7.10;;;;;;;3.57;100.00;100040.81;5061873;28;20088;-81
2023/10/18 05:07:17;;;;;;;11.40;6.65;;;;;;;3.44;100.00;100019.31;5052578;28;20052;-81
2023/10/18 05:09:45;;;;;;;9.80;6.57;;;;;;;3.62;100.00;100048.56;5077903;28;20083;-79
2023/10/18 05:12:27;;;;;;;13.50;7.22;;;;;;;3.57;100.00;100032.09;5098382;28;20063;-81
2023/10/18 05:15:17;;;;;;;10.98;6.97;;;;;;;3.66;100.00;100043.19;5082226;28;20108;-82
2023/10/18 05:17:47;;;;;;;8.85;6.25;;;;;;;3.61;100.00;100031.13;5083299;28;20063;-79
2023/10/18 05:23:09;;;;;;;10.70;6.53;;;;;;;3.66;100.00;100037.94;5085163;28;20136;-80
2023/10/18 05:25:45;;;;;;;11.02;7.45;;;;;;;3.66;100.00;100035.34;5087757;28;20044;-82
2023/10/18 05:28:24;;;;;;;9.63;6.50;;;;;;;3.57;100.00;100021.63;5088084;28;20074;-80
2023/10/18 05:34:04;;;;;;;10.25;6.53;;;;;;;3.72;100.00;100035.19;5085531;28;20040;-83
2023/10/18 05:36:54;;;;;;;9.68;7.00;;;;;;;3.68;100.00;100020.44;5095647;28;20052;-83
2023/10/18 05:39:36;;;;;;;9.32;6.45;;;;;;;3.73;100.00;100026.44;5075341;28;20045;-82
2023/10/18 05:42:03;;;;;;;9.95;7.30;;;;;;;3.54;100.00;99991.13;5082463;28;20057;-81
2023/10/18 05:44:35;;;;;;;12.73;7.05;;;;;;;3.78;100.00;100032.41;5079209;28;20044;-81
2023/10/18 05:47:08;;;;;;;8.60;7.07;;;;;;;3.67;100.00;100010.88;5088790;28;20032;-80
2023/10/18 05:49:50;;;;;;;10.98;7.00;;;;;;;3.79;100.00;100031.50;5086121;28;20041;-81
2023/10/18 05:52:37;;;;;;;9.25;6.70;;;;;;;3.69;100.00;100009.06;5084642;28;20069;-79
2023/10/18 05:55:10;;;;;;;11.00;6.95;;;;;;;3.74;100.00;100017.69;5087806;28;20041;-82
2023/10/18 05:57:45;;;;;;;11.63;6.93;;;;;;;3.68;100.00;100004.75;5081496;28;20075;-80
2023/10/18 06:00:18;;;;;;;11.45;6.82;;;;;;;3.70;100.00;100008.19;5084851;28;20044;-82
2023/10/18 06:02:52;;;;;;;9.52;6.80;;;;;;;3.82;100.00;100017.47;5078330;28;20040;-81
2023/10/18 06:05:27;;;;;;;9.20;7.25;;;;;;;3.88;100.00;100017.34;5081935;28;20158;-80
2023/10/18 06:07:57;;;;;;;10.10;7.13;;;;;;;3.82;100.00;100020.97;5095291;28;20040;-80
2023/10/18 06:10:34;;;;;;;12.43;6.75;;;;;;;3.90;100.00;100027.78;5100591;28;20047;-81
2023/10/18 06:13:09;;;;;;;13.55;7.22;;;;;;;3.87;100.00;100029.56;5086407;28;20112;-83
2023/10/18 06:15:44;;;;;;;12.10;7.22;;;;;;;3.92;100.00;100018.97;5112258;28;20041;-79
2023/10/18 06:18:17;;;;;;;9.90;7.43;;;;;;;3.88;100.00;100006.84;5093834;28;20044;-77
2023/10/18 06:20:52;;;;;;;11.00;7.43;;;;;;;3.91;100.00;99987.59;5095951;28;20040;-80
2023/10/18 06:23:40;;;;;;;10.10;7.45;;;;;;;3.87;100.00;99965.84;5087848;28;20044;-81
2023/10/18 06:28:56;;;;;;;11.38;6.70;;;;;;;4.11;100.00;100011.47;5100189;28;20052;-81
2023/10/18 06:31:31;;;;;;;13.35;8.05;;;;;;;4.18;100.00;100018.28;5090135;28;20051;-83
2023/10/18 06:34:04;;;;;;;12.57;7.55;;;;;;;4.21;100.00;100013.81;5091192;28;20188;-82
2023/10/18 06:36:53;;;;;;;9.70;7.00;;;;;;;4.35;100.00;100015.19;5104041;28;20059;-79
2023/10/18 06:39:28;;;;;;;11.02;7.13;;;;;;;4.40;100.00;100010.69;5081658;28;20048;-82
2023/10/18 06:41:59;;;;;;;10.68;7.60;;;;;;;4.29;100.00;99984.78;5101414;28;20120;-84
2023/10/18 06:44:33;;;;;;;13.38;7.55;;;;;;;4.53;100.00;100001.59;5100758;28;20139;-82
2023/10/18 06:47:08;;;;;;;12.38;7.28;;;;;;;4.58;100.00;100004.91;5086362;28;20051;-80
2023/10/18 06:49:47;;;;;;;11.27;7.50;;;;;;;4.59;100.00;99989.13;5072906;28;20040;-81
2023/10/18 06:52:40;;;;;;;12.82;7.88;;;;;;;4.67;100.00;100003.81;5088895;28;20036;-81
2023/10/18 06:55:17;;;;;;;10.52;7.70;;;;;;;4.73;100.00;100000.97;5098390;28;20036;-80
2023/10/18 06:57:49;;;;;;;13.30;8.02;;;;;;;4.86;100.00;100007.59;5097241;28;20037;-79
2023/10/18 07:00:19;;;;;;;12.88;8.32;;;;;;;4.85;100.00;99992.78;5099219;28;20096;-81
2023/10/18 07:03:02;;;;;;;12.35;7.90;;;;;;;5.08;100.00;100006.03;5083209;28;20044;-81
2023/10/18 07:05:43;;;;;;;14.63;8.07;;;;;;;5.15;100.00;99999.72;5093744;28;20900;-82
2023/10/18 07:08:29;;;;;;;14.15;8.32;;;;;;;5.18;100.00;99991.75;5091204;28;20051;-82
2023/10/18 07:10:58;;;;;;;11.80;7.70;;;;;;;5.25;100.00;99985.38;5093201;28;20052;-79
2023/10/18 07:13:38;;;;;;;13.13;7.60;;;;;;;5.26;100.00;99967.84;5098957;28;20047;-80
2023/10/18 07:16:15;;;;;;;9.68;7.53;;;;;;;5.40;100.00;99976.13;5099275;28;20052;-80
2023/10/18 07:19:03;;;;;;;17.75;7.82;;;;;;;5.75;100.00;99982.00;5098453;28;20043;-80
2023/10/18 07:21:38;;;;;;;12.40;8.18;;;;;;;5.85;100.00;99952.72;5098661;28;20523;-80
2023/10/18 07:24:11;;;;;;;12.55;7.82;;;;;;;6.28;100.00;99974.91;5093434;28;20028;-80
2023/10/18 07:26:41;;;;;;;9.98;7.85;;;;;;;6.54;100.00;99961.66;5111731;28;20071;-79
2023/10/18 07:29:11;;;;;;;12.15;7.53;;;;;;;6.79;100.00;99969.47;5078767;28;20044;-79
2023/10/18 07:31:44;;;;;;;10.33;7.83;;;;;;;6.79;100.00;99935.25;5097298;28;20047;-81
2023/10/18 07:34:18;;;;;;;10.82;8.00;;;;;;;7.12;100.00;99950.63;5094643;28;20028;-82
2023/10/18 07:36:48;;;;;;;13.52;7.07;;;;;;;7.21;100.00;99935.34;5093246;28;20063;-81
2023/10/18 07:39:26;;;;;;;10.52;7.95;;;;;;;7.24;100.00;99919.41;5082964;28;20041;-81
2023/10/18 07:41:55;;;;;;;11.32;7.00;;;;;;;7.34;100.00;99915.50;5093487;28;20048;-82
2023/10/18 07:44:25;;;;;;;13.20;7.72;;;;;;;7.66;100.00;99947.53;5089013;28;20047;-82
2023/10/18 07:46:55;;;;;;;13.18;7.25;;;;;;;7.66;100.00;99932.59;5111918;28;20051;-82
2023/10/18 07:49:26;;;;;;;11.75;7.65;;;;;;;7.80;100.00;99944.31;5090307;28;20111;-83
2023/10/18 07:52:08;;;;;;;12.32;8.00;;;;;;;7.72;100.00;99918.28;5090821;28;20059;-82
2023/10/18 07:54:48;;;;;;;10.68;7.72;;;;;;;7.77;100.00;99913.66;5083078;28;20040;-79
2023/10/18 08:03:05;;;;;;;10.63;8.13;;;;;;;7.91;100.00;99915.69;5094410;28;20035;-82
2023/10/18 08:09:05;;;;;;;12.25;8.23;;;;;;;7.91;100.00;99884.91;5077265;27;20743;-74
2023/10/18 08:11:34;;;;;;;12.25;7.32;;;;;;;8.20;100.00;99907.34;5079936;28;20036;-74
2023/10/18 08:14:03;;;;;;;12.10;7.97;;;;;;;8.25;100.00;99891.31;5081981;28;20045;-74
2023/10/18 08:16:44;;;;;;;12.57;8.23;;;;;;;8.33;100.00;99908.56;5083439;28;20119;-73
2023/10/18 08:19:12;;;;;;;11.15;8.35;;;;;;;8.18;100.00;99908.38;5054162;28;20061;-74
2023/10/18 08:21:57;;;;;;;12.20;8.52;;;;;;;7.99;100.00;99888.09;5076058;28;20044;-74
2023/10/18 08:24:27;;;;;;;12.73;8.57;;;;;;;8.16;100.00;99907.59;5078518;28;20072;-73
2023/10/18 08:27:00;;;;;;;15.55;8.93;;;;;;;8.26;100.00;99911.50;5083057;28;20048;-74
2023/10/18 08:29:34;;;;;;;12.70;8.57;;;;;;;8.31;100.00;99904.25;5069248;28;20045;-74
2023/10/18 08:32:09;;;;;;;12.48;8.63;;;;;;;8.32;100.00;99893.66;5084103;28;20106;-75
2023/10/18 08:34:40;;;;;;;13.13;9.20;;;;;;;8.42;100.00;99883.53;5083902;28;20122;-75
2023/10/18 08:37:11;;;;;;;14.55;8.73;;;;;;;8.42;100.00;99875.63;5078772;28;20079;-74
2023/10/18 08:39:40;;;;;;;16.55;9.18;;;;;;;8.48;100.00;99877.13;5068392;28;20524;-74
2023/10/18 08:42:11;;;;;;;11.88;8.93;;;;;;;8.56;100.00;99867.91;5077808;28;20045;-74
2023/10/18 08:44:41;;;;;;;11.77;9.07;;;;;;;8.62;100.00;99872.91;5070929;28;20091;-75
2023/10/18 08:47:13;;;;;;;13.30;8.98;;;;;;;8.56;100.00;99856.50;5073648;28;20044;-75
2023/10/18 08:49:51;;;;;;;13.02;9.10;;;;;;;8.66;100.00;99861.25;5067045;28;20059;-76
2023/10/18 08:52:23;;;;;;;14.48;9.20;;;;;;;8.73;100.00;99862.69;5077652;28;20145;-76
2023/10/18 08:54:53;;;;;;;12.68;8.80;;;;;;;8.71;100.00;99840.78;5070588;28;20073;-75
2023/10/18 08:57:34;;;;;;;12.05;8.52;;;;;;;8.94;100.00;99859.94;5073234;28;20517;-76
2023/10/18 09:00:20;;;;;;;12.25;8.30;;;;;;;8.96;100.00;99858.94;5067629;28;20040;-76
2023/10/18 09:03:01;;;;;;;11.68;9.27;;;;;;;8.92;100.00;99853.88;5074768;28;20044;-77
2023/10/18 09:05:30;;;;;;;13.30;8.85;;;;;;;8.88;100.00;99858.47;5080161;28;20045;-75
2023/10/18 09:08:03;;;;;;;12.98;9.15;;;;;;;8.92;100.00;99854.75;5056734;28;21519;-75
2023/10/18 09:13:37;;;;;;;12.32;8.60;;;;;;;9.06;100.00;99841.72;5077546;28;20052;-76
2023/10/18 09:16:12;;;;;;;12.95;9.05;;;;;;;9.11;100.00;99830.94;5073659;28;20479;-75
2023/10/18 09:18:40;;;;;;;13.15;8.68;;;;;;;9.21;100.00;99852.44;5050646;28;20040;-74
2023/10/18 09:21:17;;;;;;;14.40;8.48;;;;;;;9.23;100.00;99835.59;5056266;28;20052;-75
2023/10/18 09:23:47;;;;;;;11.75;8.02;;;;;;;9.44;100.00;99842.41;5068797;28;20413;-75
2023/10/18 09:26:26;;;;;;;13.90;9.05;;;;;;;9.56;100.00;99835.66;5058592;28;20045;-76
2023/10/18 09:28:59;;;;;;;12.10;8.23;;;;;;;9.76;100.00;99832.81;5059955;28;20059;-76
2023/10/18 09:31:29;;;;;;;11.45;8.55;;;;;;;10.05;100.00;99831.28;5058355;28;20044;-77
2023/10/18 09:33:58;;;;;;;13.25;8.25;;;;;;;10.07;100.00;99815.34;5062662;28;20056;-75
2023/10/18 09:36:28;;;;;;;10.90;8.50;;;;;;;10.33;100.00;99811.28;5044368;28;20041;-77
2023/10/18 09:38:59;;;;;;;11.55;7.97;;;;;;;10.65;100.00;99823.59;5057449;28;20053;-75
2023/10/18 09:41:30;;;;;;;12.52;8.60;;;;;;;10.79;100.00;99810.41;5059606;28;20053;-75
2023/10/18 09:44:01;;;;;;;14.45;9.23;;;;;;;10.93;100.00;99816.72;5060807;28;20503;-77
2023/10/18 09:46:31;;;;;;;;;;;;;;;11.07;98.64;99816.78;5065366;28;20047;-77
2023/10/18 09:49:00;;;;;;;10.90;7.60;;;;;;;11.01;97.36;99804.75;5058401;28;19936;-77
2023/10/18 09:51:29;;;;;;;13.15;8.48;;;;;;;10.72;95.01;99761.38;5062479;28;20071;-77
2023/10/18 09:53:57;;;;;;;12.88;8.27;;;;;;;10.86;97.63;99790.56;5072687;28;20075;-76
2023/10/18 09:56:33;;;;;;;11.23;8.73;;;;;;;10.88;98.69;99793.13;5066902;28;20127;-76
2023/10/18 09:59:11;;;;;;;12.05;8.35;;;;;;;10.71;100.00;99777.34;5060800;28;20160;-75
2023/10/18 10:01:59;;;;;;;10.30;7.90;;;;;;;10.87;100.00;99775.53;5076939;28;20052;-75
2023/10/18 10:04:33;;;;;;;11.50;7.93;;;;;;;11.03;100.00;99770.19;5067885;28;20044;-74
2023/10/18 10:09:49;;;;;;;11.68;8.48;;;;;;;11.26;99.79;99745.84;5063888;28;20049;-74
2023/10/18 10:12:19;;;;;;;11.90;8.48;;;;;;;11.54;97.46;99750.31;5069642;28;20056;-75
2023/10/18 10:14:49;;;;;;;12.30;8.02;;;;;;;11.66;97.64;99738.09;5066551;28;20041;-74
2023/10/18 10:17:20;;;;;;;13.25;8.63;;;;;;;11.71;95.27;99720.13;5068500;28;20045;-75
2023/10/18 10:19:52;;;;;;;12.15;8.25;;;;;;;11.85;94.55;99734.25;5051343;28;20044;-75
2023/10/18 10:22:24;;;;;;;13.52;8.07;;;;;;;12.06;93.31;99729.41;5068147;28;20037;-75
2023/10/18 10:25:00;;;;;;;12.60;7.82;;;;;;;12.13;92.48;99728.03;5056077;28;20060;-74
2023/10/18 10:27:49;;;;;;;10.70;7.43;;;;;;;11.95;91.55;99694.75;5070344;28;20067;-75
2023/10/18 10:30:26;;;;;;;11.23;8.20;;;;;;;12.19;93.47;99725.00;5068608;28;20051;-74
2023/10/18 10:32:59;;;;;;;12.10;7.32;;;;;;;12.42;92.68;99722.69;5074814;28;20127;-75
2023/10/18 10:35:33;;;;;;;9.82;7.30;;;;;;;12.54;89.66;99713.91;5080896;28;20048;-74
2023/10/18 10:38:09;;;;;;;11.27;7.32;;;;;;;12.57;88.23;99713.72;5073359;28;20088;-75
2023/10/18 10:40:44;;;;;;;;;;;;;;;12.62;85.46;99704.47;5046075;28;20064;-74
2023/10/18 10:43:13;;;;;;;8.95;7.13;;;;;;;12.58;87.84;99691.50;5064408;28;19947;-74
2023/10/18 10:45:43;;;;;;;11.90;7.20;;;;;;;12.50;89.33;99665.44;5060369;28;20064;-74
2023/10/18 10:48:31;;;;;;;;;;;;;;;12.68;84.49;99681.13;5044171;28;20049;-74
2023/10/18 10:51:08;;;;;;;10.50;8.05;;;;;;;12.65;85.90;99676.84;5057994;28;19952;-76
2023/10/18 10:53:44;;;;;;;10.30;7.38;;;;;;;12.64;84.83;99659.22;5059319;28;20059;-74
2023/10/18 10:56:19;;;;;;;11.55;7.57;;;;;;;12.68;86.40;99671.34;5057929;28;20044;-74
2023/10/18 10:59:03;;;;;;;8.38;6.07;;;;;;;12.81;81.99;99658.94;5059807;28;20096;-76
2023/10/18 11:02:05;;;;;;;10.25;6.63;;;;;;;12.98;82.14;99653.31;5057798;28;20045;-76
2023/10/18 11:04:49;;;;;;;10.05;6.65;;;;;;;13.12;80.90;99662.16;5059794;28;20043;-75
2023/10/18 11:07:22;;;;;;;11.38;7.13;;;;;;;13.15;79.43;99646.88;5059293;28;20108;-74
2023/10/18 11:09:59;;;;;;;9.13;6.90;;;;;;;13.08;78.92;99626.94;5054542;28;20040;-76
2023/10/18 11:12:29;;;;;;;7.45;6.60;;;;;;;13.30;80.42;99643.16;5055452;28;20045;-75
2023/10/18 11:15:00;;;;;;;10.45;6.57;;;;;;;13.42;79.59;99636.09;5060520;28;20060;-75
2023/10/18 11:17:34;;;;;;;17.83;6.00;;;;;;;13.53;74.35;99638.88;5058496;28;20045;-75
2023/10/18 11:20:18;;;;;;;6.93;4.30;;;;;;;13.42;68.45;99635.25;5052914;28;20111;-74
2023/10/18 11:22:50;;;;;;;6.70;4.15;;;;;;;13.30;64.97;99621.03;5044841;28;20511;-75
2023/10/18 11:25:20;;;;;;;7.88;4.07;;;;;;;13.29;66.42;99624.63;5060593;28;20048;-75
2023/10/18 11:27:48;;;;;;;6.93;3.80;;;;;;;13.31;63.26;99604.97;5053923;28;20072;-74
2023/10/18 11:30:22;;;;;;;5.80;4.13;;;;;;;13.34;62.76;99601.25;5048602;28;20052;-75
2023/10/18 11:32:54;;;;;;;5.50;4.10;;;;;;;13.45;63.71;99600.47;5059284;28;20040;-75
2023/10/18 11:35:54;;;;;;;6.63;3.90;;;;;;;13.51;62.20;99586.75;5062282;28;20045;-75
2023/10/18 11:38:23;;;;;;;5.50;3.63;;;;;;;13.47;62.58;99585.25;5066190;28;20053;-74
2023/10/18 11:40:51;;;;;;;7.63;4.25;;;;;;;13.32;61.70;99544.66;5062651;28;21727;-74
2023/10/18 11:43:26;;;;;;;5.35;4.03;;;;;;;13.33;63.12;99538.38;5061688;28;20269;-75
2023/10/18 11:46:05;;;;;;;6.00;3.63;;;;;;;13.61;62.42;99558.50;5057518;28;20109;-76
2023/10/18 11:48:35;;;;;;;6.40;3.85;;;;;;;13.64;60.67;99552.97;5036577;28;20053;-75
2023/10/18 11:51:06;;;;;;;6.13;3.80;;;;;;;13.53;61.03;99521.84;5057477;28;20041;-75
2023/10/18 11:53:35;;;;;;;5.07;3.70;;;;;;;13.50;60.41;99499.94;5065021;28;20052;-75
2023/10/18 11:56:05;;;;;;;5.85;4.00;;;;;;;13.67;60.19;99527.00;5056223;28;20041;-76
2023/10/18 11:58:35;;;;;;;7.55;3.78;;;;;;;13.64;60.41;99524.56;5057005;28;20362;-76
2023/10/18 12:01:18;;;;;;;7.55;3.70;;;;;;;13.61;62.13;99530.09;5047154;28;20056;-76
2023/10/18 12:03:48;;;;;;;5.18;3.15;;;;;;;13.50;62.00;99499.94;5055441;28;20136;-76
2023/10/18 12:06:21;;;;;;;5.20;3.33;;;;;;;13.72;61.07;99509.84;5061965;28;20052;-76
2023/10/18 12:09:09;;;;;;;6.00;3.40;;;;;;;13.72;60.06;99488.53;5061252;28;20059;-76
2023/10/18 12:11:38;;;;;;;5.10;2.97;;;;;;;13.86;59.45;99499.84;5048555;28;20124;-75
2023/10/18 12:14:08;;;;;;;5.78;3.53;;;;;;;13.93;59.35;99490.47;5057175;28;20060;-75
2023/10/18 12:16:36;;;;;;;5.37;3.27;;;;;;;13.95;58.06;99485.88;5064408;28;20044;-75
2023/10/18 12:19:10;;;;;;;5.78;3.30;;;;;;;14.22;56.99;99506.91;5071405;28;20102;-75